Time;durP1;ratioP1;P1;durP2;ratioP2;P2;SDS_P1;SDS_P2;PMS_P1;PMS_P2;Temp;Humidity;BMP_temperature;BMP_pressure;BME280_temperature;BME280_humidity;BME280_pressure;Samples;Min_cycle;Max_cycle;Signal;HPM_P1;HPM_P2
2023/01/17 00:02:20;;;;;;;2.60;0.30;;;;;;;1.71;97.40;98209.00;4860314;29;20041;-76
2023/01/17 00:10:23;;;;;;;2.78;0.65;;;;;;;1.78;99.43;98207.88;4869124;29;20045;-72
2023/01/17 00:12:57;;;;;;;3.22;0.95;;;;;;;1.82;99.90;98224.22;4867499;29;20055;-72
2023/01/17 00:15:28;;;;;;;6.65;0.85;;;;;;;1.84;99.99;98215.47;4870008;29;20060;-75
2023/01/17 00:17:56;;;;;;;3.90;0.85;;;;;;;1.83;100.00;98218.13;4867035;29;20070;-75
2023/01/17 00:26:25;;;;;;;4.70;1.20;;;;;;;2.00;100.00;98214.88;4859746;29;20049;-75
2023/01/17 01:33:46;;;;;;;0.88;0.68;;;;;;;0.41;100.00;98372.28;4875177;29;20085;-76
2023/01/17 01:36:14;;;;;;;2.53;0.90;;;;;;;0.38;100.00;98376.72;4875258;29;20069;-76
2023/01/17 01:38:41;;;;;;;2.08;1.38;;;;;;;0.41;100.00;98379.22;4862309;29;20102;-74
2023/01/17 01:41:08;;;;;;;1.23;0.80;;;;;;;0.45;100.00;98397.25;4867845;29;20883;-74
2023/01/17 01:44:25;;;;;;;1.17;0.90;;;;;;;0.45;100.00;98399.00;4875727;29;20045;-74
2023/01/17 01:46:53;;;;;;;1.65;0.70;;;;;;;0.53;100.00;98398.75;4856949;29;20065;-74
2023/01/17 01:49:27;;;;;;;3.42;0.90;;;;;;;0.56;100.00;98404.72;4863773;29;20056;-73
2023/01/17 01:52:03;;;;;;;2.65;0.70;;;;;;;0.58;100.00;98399.50;4859860;29;20270;-73
2023/01/17 01:54:43;;;;;;;1.40;0.70;;;;;;;0.60;100.00;98419.31;4872012;29;20597;-73
2023/01/17 01:57:16;;;;;;;2.22;0.80;;;;;;;0.63;100.00;98414.94;4867954;29;20057;-75
2023/01/17 01:59:55;;;;;;;2.63;0.55;;;;;;;0.63;100.00;98413.16;4861879;29;20073;-74
2023/01/17 02:02:22;;;;;;;2.28;0.70;;;;;;;0.65;100.00;98424.34;4865570;29;20050;-75
2023/01/17 02:04:50;;;;;;;1.45;0.70;;;;;;;0.66;100.00;98438.19;4869392;29;20058;-76
2023/01/17 02:07:30;;;;;;;1.92;0.75;;;;;;;0.68;100.00;98444.16;4865972;29;20045;-73
2023/01/17 02:09:57;;;;;;;1.52;0.50;;;;;;;0.65;100.00;98446.84;4871302;29;20049;-74
2023/01/17 02:12:25;;;;;;;1.77;1.10;;;;;;;0.65;100.00;98455.47;4870773;29;20045;-74
2023/01/17 02:14:52;;;;;;;1.98;0.50;;;;;;;0.66;100.00;98458.94;4868022;29;20046;-74
2023/01/17 02:17:21;;;;;;;2.15;0.60;;;;;;;0.66;100.00;98462.38;4868964;29;20104;-73
2023/01/17 02:20:07;;;;;;;1.88;0.60;;;;;;;0.71;100.00;98464.81;4869850;29;20045;-73
2023/01/17 02:22:55;;;;;;;1.45;0.93;;;;;;;0.78;100.00;98476.72;4859866;29;20045;-74
2023/01/17 02:25:53;;;;;;;2.65;2.00;;;;;;;0.77;100.00;98477.63;4864358;29;20171;-74
2023/01/17 02:29:11;;;;;;;6.40;3.08;;;;;;;0.76;100.00;98475.94;4862785;29;20041;-74
2023/01/17 02:31:54;;;;;;;6.15;3.10;;;;;;;0.76;100.00;98488.91;4872848;29;20050;-74
2023/01/17 02:34:31;;;;;;;3.92;2.65;;;;;;;0.74;100.00;98486.34;4872724;29;20118;-73
2023/01/17 02:37:08;;;;;;;4.95;2.15;;;;;;;0.76;100.00;98491.50;4864000;29;20499;-73
2023/01/17 02:39:57;;;;;;;5.55;2.00;;;;;;;0.73;100.00;98486.38;4871064;29;20049;-73
2023/01/17 02:42:32;;;;;;;6.30;2.28;;;;;;;0.75;100.00;98489.81;4862311;29;20799;-73
2023/01/17 02:45:02;;;;;;;4.45;2.00;;;;;;;0.79;100.00;98491.41;4873045;29;20049;-73
2023/01/17 02:47:31;;;;;;;5.80;2.10;;;;;;;0.82;100.00;98490.44;4865687;29;20142;-73
2023/01/17 02:50:14;;;;;;;3.92;1.92;;;;;;;0.88;100.00;98490.31;4870115;29;20721;-73
2023/01/17 02:53:18;;;;;;;4.82;1.90;;;;;;;0.93;100.00;98488.41;4870342;29;20535;-76
2023/01/17 02:56:08;;;;;;;4.05;1.60;;;;;;;1.00;100.00;98486.50;4873640;29;20050;-75
2023/01/17 02:59:06;;;;;;;3.50;2.13;;;;;;;1.04;100.00;98488.94;4868934;29;20065;-75
2023/01/17 03:01:57;;;;;;;4.80;2.10;;;;;;;1.07;100.00;98486.28;4864013;29;20133;-77
2023/01/17 03:04:44;;;;;;;5.32;2.58;;;;;;;1.13;100.00;98492.16;4869137;29;20042;-76
2023/01/17 03:07:21;;;;;;;6.82;2.83;;;;;;;1.19;100.00;98499.78;4869187;29;20045;-77
2023/01/17 03:09:58;;;;;;;7.43;3.65;;;;;;;1.26;100.00;98505.66;4869104;29;20136;-75
2023/01/17 03:12:29;;;;;;;9.45;3.55;;;;;;;1.28;100.00;98509.91;4872376;29;20060;-75
2023/01/17 03:14:56;;;;;;;6.50;3.75;;;;;;;1.30;100.00;98518.50;4866497;29;20502;-76
2023/01/17 03:17:31;;;;;;;8.32;4.50;;;;;;;1.32;100.00;98515.84;4869968;29;20069;-77
2023/01/17 03:19:58;;;;;;;8.93;5.20;;;;;;;1.30;100.00;98513.31;4870665;29;20132;-76
2023/01/17 03:22:25;;;;;;;6.78;4.93;;;;;;;1.28;100.00;98522.00;4871715;29;20081;-75
2023/01/17 03:24:53;;;;;;;7.13;4.95;;;;;;;1.27;100.00;98525.53;4872861;29;20045;-77
2023/01/17 03:27:20;;;;;;;7.78;5.57;;;;;;;1.25;100.00;98520.38;4872069;29;20053;-76
2023/01/17 03:29:47;;;;;;;8.93;5.25;;;;;;;1.22;100.00;98523.06;4872360;29;20060;-76
2023/01/17 03:32:14;;;;;;;9.50;5.40;;;;;;;1.19;100.00;98524.00;4864135;29;20052;-76
2023/01/17 03:34:41;;;;;;;6.60;5.30;;;;;;;1.16;100.00;98531.03;4871363;29;20952;-76
2023/01/17 03:37:08;;;;;;;6.15;5.38;;;;;;;1.12;100.00;98529.44;4872364;29;20097;-72
2023/01/17 03:39:35;;;;;;;9.35;5.53;;;;;;;1.08;100.00;98534.69;4870362;29;20050;-72
2023/01/17 03:42:02;;;;;;;7.68;5.55;;;;;;;1.08;100.00;98532.09;4863233;29;20049;-72
2023/01/17 03:44:29;;;;;;;7.90;5.00;;;;;;;1.05;100.00;98532.19;4870246;29;20049;-72
2023/01/17 03:46:56;;;;;;;7.00;5.95;;;;;;;1.05;100.00;98532.19;4871168;29;20530;-72
2023/01/17 03:49:23;;;;;;;8.85;6.03;;;;;;;1.08;100.00;98539.00;4869455;29;20045;-72
2023/01/17 03:51:50;;;;;;;8.98;6.13;;;;;;;1.12;100.00;98532.03;4867082;29;20045;-73
2023/01/17 03:54:17;;;;;;;10.20;5.95;;;;;;;1.14;100.00;98531.06;4871194;29;20990;-74
2023/01/17 03:56:44;;;;;;;7.15;5.70;;;;;;;1.16;100.00;98533.63;4871082;29;20042;-75
2023/01/17 03:59:12;;;;;;;9.38;5.82;;;;;;;1.14;100.00;98544.06;4862663;29;20106;-74
2023/01/17 04:01:39;;;;;;;7.47;5.20;;;;;;;1.09;100.00;98545.91;4870241;29;20740;-75
2023/01/17 04:04:06;;;;;;;6.00;4.18;;;;;;;1.00;100.00;98549.63;4866233;29;20141;-74
2023/01/17 04:06:33;;;;;;;8.57;4.30;;;;;;;0.93;100.00;98550.69;4872717;29;20041;-74
2023/01/17 04:09:00;;;;;;;7.75;3.58;;;;;;;0.85;100.00;98560.41;4860257;29;20098;-75
2023/01/17 04:11:27;;;;;;;8.15;3.60;;;;;;;0.79;100.00;98558.00;4869727;29;20110;-74
2023/01/17 04:13:54;;;;;;;8.25;3.80;;;;;;;0.74;100.00;98565.91;4867150;29;20053;-75
2023/01/17 04:16:29;;;;;;;5.47;3.95;;;;;;;0.67;100.00;98565.22;4866152;29;20046;-74
2023/01/17 04:18:57;;;;;;;7.75;4.00;;;;;;;0.63;100.00;98563.59;4867835;29;20061;-76
2023/01/17 04:21:24;;;;;;;5.95;3.47;;;;;;;0.59;100.00;98556.78;4869017;29;20081;-75
2023/01/17 04:23:51;;;;;;;8.77;3.10;;;;;;;0.55;100.00;98558.63;4869018;29;20527;-75
2023/01/17 04:26:18;;;;;;;4.88;2.85;;;;;;;0.52;100.00;98563.88;4870984;29;20042;-75
2023/01/17 04:28:45;;;;;;;4.50;2.75;;;;;;;0.51;100.00;98567.34;4868660;29;20037;-75
2023/01/17 04:31:16;;;;;;;4.07;2.38;;;;;;;0.51;100.00;98574.28;4864239;29;20053;-74
2023/01/17 04:33:43;;;;;;;5.78;2.58;;;;;;;0.52;100.00;98573.38;4865203;29;20050;-75
2023/01/17 04:36:10;;;;;;;5.45;1.98;;;;;;;0.56;100.00;98570.66;4865900;29;20049;-75
2023/01/17 04:38:37;;;;;;;5.95;2.00;;;;;;;0.60;100.00;98564.53;4865422;29;20042;-76
2023/01/17 04:41:04;;;;;;;4.65;1.77;;;;;;;0.59;100.00;98570.59;4871165;29;20052;-74
2023/01/17 04:43:31;;;;;;;4.38;1.67;;;;;;;0.59;100.00;98570.59;4870476;29;20050;-75
2023/01/17 04:45:58;;;;;;;5.57;1.70;;;;;;;0.58;100.00;98575.81;4871679;29;20080;-75
2023/01/17 04:48:26;;;;;;;4.85;1.70;;;;;;;0.57;100.00;98564.59;4868257;29;20042;-72
2023/01/17 04:51:01;;;;;;;5.32;1.50;;;;;;;0.57;100.00;98562.00;4869954;29;20053;-71
2023/01/17 04:53:28;;;;;;;6.90;1.60;;;;;;;0.57;100.00;98559.41;4864389;29;20056;-72
2023/01/17 04:55:56;;;;;;;4.72;1.60;;;;;;;0.59;100.00;98567.16;4870711;29;20524;-72
2023/01/17 04:58:23;;;;;;;7.15;1.55;;;;;;;0.64;100.00;98578.25;4872521;29;20158;-72
2023/01/17 05:00:50;;;;;;;3.40;1.42;;;;;;;0.67;100.00;98573.00;4868470;29;20056;-72
2023/01/17 05:03:20;;;;;;;5.57;1.77;;;;;;;0.72;100.00;98581.50;4870398;29;20045;-71
2023/01/17 05:05:48;;;;;;;6.07;1.98;;;;;;;0.75;100.00;98593.56;4857300;29;20060;-72
2023/01/17 05:08:15;;;;;;;6.75;1.85;;;;;;;0.79;100.00;98571.81;4861140;29;20050;-72
2023/01/17 05:10:45;;;;;;;7.22;1.30;;;;;;;0.74;100.00;98576.28;4871579;29;20121;-74
2023/01/17 05:13:13;;;;;;;3.70;1.42;;;;;;;0.66;100.00;98576.47;4871724;29;20062;-74
2023/01/17 05:15:40;;;;;;;5.55;1.30;;;;;;;0.57;100.00;98574.97;4861515;29;20112;-75
2023/01/17 05:18:13;;;;;;;2.97;1.45;;;;;;;0.48;100.00;98567.41;4869326;29;20084;-75
2023/01/17 05:20:41;;;;;;;13.93;1.85;;;;;;;0.40;100.00;98567.63;4869165;29;20132;-76
2023/01/17 05:23:08;;;;;;;11.63;1.80;;;;;;;0.34;100.00;98575.56;4871114;29;20076;-76
2023/01/17 05:25:35;;;;;;;10.68;2.22;;;;;;;0.30;100.00;98581.72;4863005;29;20053;-75
2023/01/17 05:28:03;;;;;;;7.10;2.22;;;;;;;0.25;100.00;98583.56;4870468;29;20052;-75
2023/01/17 05:30:31;;;;;;;7.57;1.92;;;;;;;0.24;100.00;98590.50;4869961;29;20053;-76
2023/01/17 05:32:58;;;;;;;8.30;2.40;;;;;;;0.27;100.00;98597.34;4863215;29;20045;-77
2023/01/17 05:35:31;;;;;;;9.02;2.30;;;;;;;0.30;100.00;98602.44;4858196;29;20078;-77
2023/01/17 05:37:58;;;;;;;9.60;2.33;;;;;;;0.35;100.00;98602.34;4860110;29;20053;-72
2023/01/17 05:40:29;;;;;;;11.45;2.40;;;;;;;0.42;100.00;98615.09;4865054;29;20056;-73
2023/01/17 05:42:59;;;;;;;10.15;2.85;;;;;;;0.59;100.00;98619.03;4873922;29;20076;-73
2023/01/17 05:45:29;;;;;;;9.23;2.45;;;;;;;0.77;100.00;98622.88;4874114;29;20081;-73
2023/01/17 05:47:57;;;;;;;6.20;2.45;;;;;;;0.95;100.00;98628.50;4874472;29;20045;-73
2023/01/17 05:50:32;;;;;;;6.78;2.83;;;;;;;1.05;100.00;98620.41;4868265;29;20129;-73
2023/01/17 05:53:07;;;;;;;8.57;3.33;;;;;;;1.12;100.00;98600.34;4870215;29;20061;-73
2023/01/17 05:55:35;;;;;;;9.93;3.10;;;;;;;1.19;100.00;98604.47;4864938;29;20120;-74
2023/01/17 05:58:04;;;;;;;8.68;3.53;;;;;;;1.20;100.00;98608.75;4869419;29;20153;-74
2023/01/17 06:00:31;;;;;;;13.68;3.55;;;;;;;1.11;100.00;98613.38;4862729;29;20042;-74
2023/01/17 06:03:00;;;;;;;9.90;3.33;;;;;;;0.96;100.00;98617.22;4867454;29;20053;-74
2023/01/17 06:05:28;;;;;;;13.45;4.53;;;;;;;0.84;100.00;98603.69;4863346;29;20474;-73
2023/01/17 06:07:56;;;;;;;17.17;5.10;;;;;;;0.84;100.00;98616.66;4862459;29;20049;-73
2023/01/17 06:10:25;;;;;;;15.70;5.40;;;;;;;0.87;100.00;98620.91;4863488;29;20045;-74
2023/01/17 06:13:07;;;;;;;16.58;6.32;;;;;;;0.92;100.00;98616.44;4863857;29;20194;-74
2023/01/17 06:15:36;;;;;;;13.25;6.13;;;;;;;0.87;100.00;98621.75;4865094;29;20085;-70
2023/01/17 06:18:11;;;;;;;14.02;6.20;;;;;;;0.74;100.00;98626.41;4868414;29;20049;-71
2023/01/17 06:20:39;;;;;;;14.10;6.63;;;;;;;0.62;100.00;98629.31;4864664;29;20145;-71
2023/01/17 06:23:10;;;;;;;14.45;6.78;;;;;;;0.52;100.00;98633.88;4862637;29;20102;-72
2023/01/17 06:25:42;;;;;;;17.15;7.03;;;;;;;0.41;100.00;98625.50;4856395;29;20077;-72
2023/01/17 06:28:13;;;;;;;14.23;7.30;;;;;;;0.32;100.00;98634.34;4867411;29;20045;-73
2023/01/17 06:30:42;;;;;;;16.45;7.28;;;;;;;0.23;100.00;98629.38;4862926;29;20049;-72
2023/01/17 06:33:11;;;;;;;15.13;7.25;;;;;;;0.15;100.00;98627.00;4853946;29;20062;-72
2023/01/17 06:35:39;;;;;;;21.85;7.95;;;;;;;0.09;100.00;98637.47;4857154;29;20073;-72
2023/01/17 06:38:08;;;;;;;18.52;8.75;;;;;;;0.05;100.00;98641.03;4864038;29;20057;-73
2023/01/17 06:40:35;;;;;;;20.95;9.13;;;;;;;0.03;100.00;98641.06;4869443;29;20116;-72
2023/01/17 06:43:04;;;;;;;20.55;8.52;;;;;;;0.00;100.00;98646.34;4868279;29;20049;-72
2023/01/17 06:45:34;;;;;;;21.10;9.50;;;;;;;-0.04;100.00;98647.28;4868632;29;20050;-73
2023/01/17 06:48:03;;;;;;;20.35;10.05;;;;;;;-0.11;100.00;98646.56;4867006;29;20060;-73
2023/01/17 06:50:32;;;;;;;21.80;9.50;;;;;;;-0.16;100.00;98651.00;4856668;29;20122;-73
2023/01/17 06:53:04;;;;;;;22.17;11.75;;;;;;;-0.22;100.00;98644.22;4863480;29;20742;-72
2023/01/17 06:55:33;;;;;;;27.33;12.77;;;;;;;-0.25;100.00;98643.41;4856488;29;20046;-72
2023/01/17 06:58:01;;;;;;;24.83;13.32;;;;;;;-0.28;100.00;98644.31;4863851;29;20169;-72
2023/01/17 07:00:33;;;;;;;32.22;13.30;;;;;;;-0.29;100.00;98655.56;4868267;29;20062;-73
2023/01/17 07:03:25;;;;;;;27.92;13.05;;;;;;;-0.22;100.00;98658.88;4860493;29;20046;-73
2023/01/17 07:05:53;;;;;;;29.70;14.68;;;;;;;-0.17;100.00;98657.91;4867613;29;20101;-73
2023/01/17 07:08:20;;;;;;;33.47;14.48;;;;;;;-0.10;100.00;98650.84;4872629;29;20137;-73
2023/01/17 07:10:48;;;;;;;35.28;15.48;;;;;;;-0.03;100.00;98660.19;4864330;29;20052;-73
2023/01/17 07:13:15;;;;;;;31.15;14.50;;;;;;;0.04;100.00;98657.47;4871790;29;20045;-73
2023/01/17 07:15:42;;;;;;;32.65;14.80;;;;;;;0.11;100.00;98661.63;4865449;29;20575;-72
2023/01/17 07:18:09;;;;;;;31.38;15.55;;;;;;;0.18;100.00;98655.41;4872943;29;20407;-72
2023/01/17 07:20:37;;;;;;;32.35;15.55;;;;;;;0.23;100.00;98660.47;4874433;29;20487;-72
2023/01/17 07:23:05;;;;;;;35.30;16.55;;;;;;;0.28;100.00;98658.66;4873603;29;20068;-72
2023/01/17 07:25:32;;;;;;;33.42;15.90;;;;;;;0.35;100.00;98654.19;4874259;29;20049;-72
2023/01/17 07:27:59;;;;;;;29.88;15.52;;;;;;;0.39;100.00;98651.47;4874445;29;20042;-73
2023/01/17 07:30:26;;;;;;;34.83;15.88;;;;;;;0.41;100.00;98651.44;4859030;29;20046;-73
2023/01/17 07:32:54;;;;;;;27.00;14.57;;;;;;;0.38;100.00;98654.09;4855267;29;20050;-73
2023/01/17 07:35:26;;;;;;;31.23;15.38;;;;;;;0.33;100.00;98654.19;4865057;29;20141;-72
2023/01/17 07:37:54;;;;;;;35.50;16.13;;;;;;;0.28;100.00;98666.44;4873956;29;20089;-72
2023/01/17 07:40:21;;;;;;;35.03;15.90;;;;;;;0.22;100.00;98664.84;4872925;29;20042;-72
2023/01/17 07:42:48;;;;;;;32.70;16.27;;;;;;;0.19;100.00;98664.06;4874041;29;20049;-72
2023/01/17 07:45:16;;;;;;;31.08;16.40;;;;;;;0.13;100.00;98652.91;4873482;29;20045;-72
2023/01/17 07:47:43;;;;;;;33.90;16.25;;;;;;;0.08;100.00;98659.97;4873996;29;20054;-72
2023/01/17 07:50:12;;;;;;;37.92;18.13;;;;;;;0.04;100.00;98658.31;4865818;29;20052;-72
2023/01/17 07:52:40;;;;;;;35.60;16.85;;;;;;;0.01;100.00;98660.13;4874256;29;20075;-72
2023/01/17 07:55:08;;;;;;;32.75;17.30;;;;;;;-0.02;100.00;98663.66;4872969;29;20521;-72
2023/01/17 07:57:35;;;;;;;37.05;17.70;;;;;;;-0.05;100.00;98669.72;4873911;29;20050;-72
2023/01/17 08:00:04;;;;;;;29.60;17.65;;;;;;;-0.05;100.00;98676.66;4860080;29;20083;-72
2023/01/17 08:02:38;;;;;;;36.20;17.55;;;;;;;-0.05;100.00;98672.31;4854678;29;20079;-72
2023/01/17 08:05:05;;;;;;;33.38;18.10;;;;;;;-0.03;100.00;98672.31;4854948;29;20143;-72
2023/01/17 08:07:32;;;;;;;30.83;16.88;;;;;;;-0.02;100.00;98666.25;4854819;29;20050;-73
2023/01/17 08:10:00;;;;;;;33.03;17.33;;;;;;;0.02;100.00;98678.22;4864173;29;20046;-72
2023/01/17 08:12:28;;;;;;;34.90;17.80;;;;;;;0.07;100.00;98685.88;4872937;29;20045;-71
2023/01/17 08:14:55;;;;;;;38.60;19.10;;;;;;;0.12;100.00;98679.72;4863609;29;20061;-71
2023/01/17 08:17:22;;;;;;;33.95;17.65;;;;;;;0.18;100.00;98673.56;4873499;29;20054;-71
2023/01/17 08:19:51;;;;;;;31.40;17.88;;;;;;;0.27;100.00;98683.69;4863344;29;20045;-72
2023/01/17 08:22:18;;;;;;;39.40;17.88;;;;;;;0.35;100.00;98677.50;4870523;29;20049;-72
2023/01/17 08:24:46;;;;;;;41.35;18.80;;;;;;;0.44;100.00;98675.53;4864469;29;20133;-71
2023/01/17 08:27:14;;;;;;;30.63;16.75;;;;;;;0.52;100.00;98677.97;4867817;29;20056;-71
2023/01/17 08:29:45;;;;;;;32.60;16.90;;;;;;;0.56;100.00;98678.72;4871814;29;20834;-72
2023/01/17 08:32:14;;;;;;;34.70;17.02;;;;;;;0.58;100.00;98672.63;4873396;29;20161;-72
2023/01/17 08:34:41;;;;;;;33.83;17.00;;;;;;;0.58;100.00;98677.81;4873416;29;20049;-72
2023/01/17 08:37:08;;;;;;;30.20;15.57;;;;;;;0.57;100.00;98672.66;4873898;29;20102;-72
2023/01/17 08:39:35;;;;;;;29.98;15.80;;;;;;;0.59;100.00;98673.47;4872580;29;20172;-72
2023/01/17 08:42:02;;;;;;;32.85;15.85;;;;;;;0.57;100.00;98665.72;4872721;29;20046;-72
2023/01/17 08:44:29;;;;;;;30.63;15.32;;;;;;;0.57;100.00;98673.50;4858614;29;20494;-72
2023/01/17 08:46:57;;;;;;;30.27;15.90;;;;;;;0.58;100.00;98669.19;4854297;29;20053;-72
2023/01/17 08:49:24;;;;;;;30.55;16.02;;;;;;;0.58;100.00;98672.63;4854633;29;20046;-72
2023/01/17 08:51:51;;;;;;;31.67;15.20;;;;;;;0.60;100.00;98676.03;4853939;29;20133;-72
2023/01/17 08:54:18;;;;;;;25.33;14.25;;;;;;;0.61;100.00;98674.31;4853383;29;20563;-72
2023/01/17 08:56:46;;;;;;;26.00;14.63;;;;;;;0.64;100.00;98682.00;4854267;29;20089;-72
2023/01/17 08:59:13;;;;;;;25.00;13.93;;;;;;;0.67;100.00;98688.84;4870875;29;20102;-72
2023/01/17 09:01:40;;;;;;;23.50;13.50;;;;;;;0.67;100.00;98681.94;4872628;29;20113;-72
2023/01/17 09:04:08;;;;;;;25.88;13.50;;;;;;;0.75;100.00;98692.13;4870733;29;20041;-72
2023/01/17 09:06:44;;;;;;;23.75;13.27;;;;;;;0.80;100.00;98694.59;4872949;29;20049;-72
2023/01/17 09:09:12;;;;;;;28.30;13.52;;;;;;;0.82;100.00;98700.56;4872329;29;20106;-72
2023/01/17 09:11:39;;;;;;;27.15;13.13;;;;;;;0.84;100.00;98698.81;4872453;29;20121;-73
2023/01/17 09:14:06;;;;;;;25.70;12.15;;;;;;;0.84;100.00;98702.28;4876578;29;20064;-72
2023/01/17 09:16:33;;;;;;;26.67;12.93;;;;;;;0.85;100.00;98703.97;4870752;29;20053;-72
2023/01/17 09:19:01;;;;;;;27.77;12.02;;;;;;;0.88;100.00;98700.44;4875739;29;20167;-71
2023/01/17 09:21:28;;;;;;;23.55;12.75;;;;;;;0.90;100.00;98701.25;4862827;29;20250;-71
2023/01/17 09:23:55;;;;;;;24.00;12.50;;;;;;;0.93;100.00;98716.72;4862462;29;20092;-72
2023/01/17 09:26:27;;;;;;;96.93;47.50;;;;;;;0.98;100.00;98708.84;4870462;29;20079;-71
2023/01/17 09:28:55;;;;;;;28.98;13.27;;;;;;;1.01;100.00;98720.00;4867354;29;20057;-71
2023/01/17 09:31:23;;;;;;;25.90;12.77;;;;;;;1.02;100.00;98719.09;4866309;29;20048;-72
2023/01/17 09:33:52;;;;;;;27.90;15.45;;;;;;;1.00;100.00;98727.81;4874217;29;20041;-71
2023/01/17 09:36:21;;;;;;;25.40;13.30;;;;;;;0.97;100.00;98722.72;4873059;29;20054;-71
2023/01/17 09:38:48;;;;;;;27.40;16.38;;;;;;;0.97;100.00;98731.34;4865150;29;20057;-71
2023/01/17 09:41:45;;;;;;;20.67;13.20;;;;;;;1.03;100.00;98731.19;4857372;29;20392;-71
2023/01/17 09:44:37;;;;;;;27.45;13.75;;;;;;;1.05;100.00;98736.34;4859468;29;20053;-71
2023/01/17 09:47:35;;;;;;;25.90;13.90;;;;;;;1.03;100.00;98731.19;4861442;29;20045;-71
2023/01/17 09:50:35;;;;;;;26.33;14.52;;;;;;;1.08;100.00;98738.84;4861152;29;20164;-71
2023/01/17 09:53:10;;;;;;;28.50;14.25;;;;;;;1.18;100.00;98742.91;4858209;29;20662;-71
2023/01/17 09:56:02;;;;;;;25.00;13.45;;;;;;;1.34;100.00;98742.53;4874918;29;20090;-71
2023/01/17 09:59:07;;;;;;;22.13;12.70;;;;;;;1.46;100.00;98737.03;4857529;29;20072;-71
2023/01/17 10:02:02;;;;;;;25.33;12.82;;;;;;;1.65;100.00;98741.72;4856357;29;20073;-71
2023/01/17 10:04:47;;;;;;;22.70;13.20;;;;;;;1.77;100.00;98753.50;4863955;29;20493;-71
2023/01/17 10:07:28;;;;;;;22.92;13.82;;;;;;;1.90;100.00;98754.88;4856827;29;20124;-71
2023/01/17 10:10:26;;;;;;;21.95;12.70;;;;;;;2.00;100.00;98752.84;4873832;29;20049;-71
2023/01/17 10:13:23;;;;;;;26.45;13.88;;;;;;;2.11;100.00;98744.75;4874200;29;20241;-71
2023/01/17 10:15:57;;;;;;;94.57;71.40;;;;;;;2.19;100.00;98752.34;4857315;29;20967;-70
2023/01/17 10:18:55;;;;;;;28.55;13.60;;;;;;;2.23;100.00;98743.53;4856365;29;20498;-71
2023/01/17 10:22:19;;;;;;;21.85;11.90;;;;;;;2.21;100.00;98732.34;4870071;29;20049;-71
2023/01/17 10:25:27;;;;;;;23.27;12.73;;;;;;;2.28;100.00;98728.66;4859845;29;20133;-72
2023/01/17 10:28:08;;;;;;;22.33;11.55;;;;;;;2.30;100.00;98732.06;4867947;29;20081;-72
2023/01/17 10:30:44;;;;;;;17.30;11.10;;;;;;;2.29;100.00;98728.63;4872833;29;20553;-72
2023/01/17 10:33:17;;;;;;;18.70;11.20;;;;;;;2.31;99.75;98720.75;4874491;29;20049;-72
2023/01/17 10:36:08;;;;;;;19.13;10.88;;;;;;;2.37;99.28;98732.72;4875007;29;20563;-72
2023/01/17 10:38:38;;;;;;;21.55;12.98;;;;;;;2.49;99.00;98733.19;4857493;29;20435;-72
2023/01/17 10:41:23;;;;;;;21.83;11.23;;;;;;;2.54;99.00;98730.47;4858825;29;20056;-72
2023/01/17 10:44:23;;;;;;;24.88;12.07;;;;;;;2.54;98.56;98732.22;4857988;29;20137;-72
2023/01/17 10:47:19;;;;;;;19.45;11.35;;;;;;;2.58;98.41;98732.06;4856293;29;20057;-72
2023/01/17 10:50:00;;;;;;;16.85;11.25;;;;;;;2.69;98.49;98734.34;4856182;29;20057;-72
2023/01/17 10:52:57;;;;;;;24.58;13.02;;;;;;;2.80;98.60;98729.63;4870566;29;20046;-72
2023/01/17 10:55:47;;;;;;;20.27;9.88;;;;;;;2.83;98.36;98726.09;4871742;29;20249;-71
2023/01/17 10:58:14;;;;;;;16.77;10.23;;;;;;;2.92;98.07;98723.19;4868090;29;20111;-72
2023/01/17 11:01:17;;;;;;;20.05;10.07;;;;;;;2.97;97.45;98723.03;4856174;29;20038;-72
2023/01/17 11:03:53;;;;;;;17.77;10.18;;;;;;;2.98;97.69;98718.66;4869552;29;20198;-72
2023/01/17 11:06:26;;;;;;;16.85;9.05;;;;;;;3.00;97.30;98722.06;4867958;29;20144;-72
2023/01/17 11:09:09;;;;;;;16.02;8.98;;;;;;;3.06;96.90;98721.84;4860520;29;20120;-72
2023/01/17 11:11:47;;;;;;;17.02;9.63;;;;;;;3.14;96.74;98719.88;4863892;29;20052;-72
2023/01/17 11:14:24;;;;;;;18.77;10.85;;;;;;;3.21;96.71;98718.75;4873376;29;20041;-71
2023/01/17 11:17:05;;;;;;;15.15;9.88;;;;;;;3.29;96.66;98715.03;4868245;29;20085;-71
2023/01/17 11:19:35;;;;;;;16.38;8.93;;;;;;;3.29;95.38;98707.22;4870604;29;20045;-72
2023/01/17 11:22:06;;;;;;;13.65;8.98;;;;;;;3.29;95.49;98712.41;4855573;29;20572;-71
2023/01/17 11:24:46;;;;;;;15.88;8.70;;;;;;;3.32;95.95;98713.16;4863545;29;20046;-71
2023/01/17 11:27:57;;;;;;;13.10;7.72;;;;;;;3.39;94.79;98711.19;4867813;29;20056;-71
2023/01/17 11:30:28;;;;;;;13.55;7.55;;;;;;;3.40;93.21;98712.91;4844935;29;20531;-71
2023/01/17 11:33:05;;;;;;;13.73;8.20;;;;;;;3.43;93.35;98710.19;4872440;29;20052;-71
2023/01/17 11:35:36;;;;;;;14.60;7.40;;;;;;;3.52;92.37;98706.41;4856788;29;20056;-71
2023/01/17 11:38:15;;;;;;;25.35;15.02;;;;;;;3.61;93.32;98703.50;4873002;29;20046;-71
2023/01/17 11:40:45;;;;;;;14.43;8.98;;;;;;;3.72;93.67;98711.75;4853222;29;20062;-71
2023/01/17 11:43:29;;;;;;;13.82;6.05;;;;;;;3.83;91.45;98703.56;4869709;29;20046;-71
2023/01/17 11:46:13;;;;;;;14.82;8.13;;;;;;;3.94;91.03;98699.69;4859206;29;20046;-71
2023/01/17 11:48:40;;;;;;;15.02;8.23;;;;;;;4.03;91.84;98700.19;4872387;29;20077;-70
2023/01/17 11:51:21;;;;;;;12.25;6.47;;;;;;;4.17;91.72;98697.06;4870338;29;20876;-71
2023/01/17 11:53:49;;;;;;;23.30;10.63;;;;;;;4.26;91.39;98692.41;4869129;29;20102;-72
2023/01/17 11:56:18;;;;;;;25.40;12.88;;;;;;;4.34;92.07;98693.78;4871981;29;20160;-72
2023/01/17 11:58:46;;;;;;;8.32;5.70;;;;;;;4.39;91.23;98695.38;4873105;29;20048;-71
2023/01/17 12:01:35;;;;;;;37.80;20.17;;;;;;;4.47;91.44;98704.63;4869644;29;20049;-71
2023/01/17 12:04:43;;;;;;;12.25;5.60;;;;;;;4.51;90.02;98698.34;4868336;29;20046;-71
2023/01/17 12:07:36;;;;;;;9.73;5.57;;;;;;;4.59;90.23;98694.59;4869247;29;20059;-71
2023/01/17 12:10:43;;;;;;;7.93;5.15;;;;;;;4.68;90.65;98694.22;4866873;29;20060;-71
2023/01/17 12:16:49;;;;;;;8.77;5.10;;;;;;;4.70;90.77;98696.78;4855031;29;20065;-71
2023/01/17 12:19:36;;;;;;;8.52;4.63;;;;;;;4.57;88.34;98689.44;4854655;29;20046;-72
2023/01/17 12:22:40;;;;;;;11.80;5.60;;;;;;;4.45;89.45;98697.75;4854497;29;20167;-72
2023/01/17 12:25:38;;;;;;;8.75;3.83;;;;;;;4.38;88.31;98698.91;4868761;29;20503;-71
2023/01/17 12:28:35;;;;;;;7.40;4.20;;;;;;;4.28;86.98;98688.84;4857752;29;20050;-71
2023/01/17 12:31:28;;;;;;;8.38;4.53;;;;;;;4.16;84.47;98695.38;4861311;29;20045;-71
2023/01/17 12:34:01;;;;;;;7.65;4.22;;;;;;;3.94;82.74;98695.31;4856384;29;20046;-71
2023/01/17 12:36:41;;;;;;;10.93;5.40;;;;;;;3.80;85.16;98692.41;4870837;29;20049;-70
2023/01/17 12:39:12;;;;;;;7.63;4.68;;;;;;;3.71;85.44;98689.19;4864804;29;20054;-71
2023/01/17 12:42:03;;;;;;;9.20;4.88;;;;;;;3.74;86.97;98696.06;4858839;29;20591;-71
2023/01/17 12:44:57;;;;;;;9.50;4.18;;;;;;;3.82;86.06;98693.16;4854810;29;20042;-71
2023/01/17 12:47:24;;;;;;;8.32;4.20;;;;;;;3.81;80.91;98691.50;4862979;29;20484;-71
2023/01/17 12:50:29;;;;;;;7.47;4.40;;;;;;;3.82;83.45;98682.75;4862526;29;20041;-71
2023/01/17 12:53:20;;;;;;;8.30;3.93;;;;;;;3.88;83.06;98690.34;4872445;29;20042;-71
2023/01/17 12:55:57;;;;;;;6.60;3.58;;;;;;;3.87;82.74;98686.88;4872723;29;20146;-70
2023/01/17 12:58:33;;;;;;;8.65;4.28;;;;;;;3.89;83.02;98690.28;4854826;29;20775;-72
2023/01/17 13:01:18;;;;;;;9.88;4.70;;;;;;;3.89;82.47;98687.69;4853843;29;20046;-71
2023/01/17 13:04:29;;;;;;;8.45;3.85;;;;;;;3.91;82.12;98686.78;4854247;29;20129;-71
2023/01/17 13:07:09;;;;;;;7.47;3.70;;;;;;;3.90;82.25;98691.16;4865435;29;20045;-71
2023/01/17 13:09:57;;;;;;;10.65;4.15;;;;;;;3.93;83.37;98688.41;4872027;29;20498;-71
2023/01/17 13:12:33;;;;;;;7.05;3.75;;;;;;;3.96;82.88;98683.09;4870998;29;20052;-71
2023/01/17 13:15:02;;;;;;;6.65;3.45;;;;;;;3.97;81.51;98687.41;4872764;29;20057;-71
2023/01/17 13:17:45;;;;;;;6.75;3.40;;;;;;;3.98;79.57;98676.06;4862342;29;20073;-71
2023/01/17 13:20:30;;;;;;;6.80;3.28;;;;;;;3.97;77.67;98684.78;4853482;29;20054;-71
2023/01/17 13:23:15;;;;;;;5.68;2.80;;;;;;;3.98;77.89;98677.81;4859433;29;20077;-72